Sandvig, Denmark
Current Conditions -  °F | °C
As of 1:20 AM on Tuesday 25 Nov 2014 (Local Time) from EKRN Reporting Station
Broken Clouds Broken Clouds  
Wind Chill: 43°   Ceiling: 4300
Heat Index: 48°   Visibility: 6mi
Dew Point: 45°   Wind: 13mph
Humidity: 87%   Direction: 270°W
Pressure: 30.15"   Gusts: NA
Location:  55.28°N, 14.78°E
Report Text: EKRN 250020Z AUTO 27011KT 9999NDV BKN043/// 09/07 Q1021
Loading
Personal Weather Stations






























Interactive Weather Map New forecast layout! Learn more

10-Day Weather Forecast

Advertisements
Track Severe Weather on mobile